Time;durP1;ratioP1;P1;durP2;ratioP2;P2;SDS_P1;SDS_P2;PMS_P1;PMS_P2;Temp;Humidity;BMP_temperature;BMP_pressure;BME280_temperature;BME280_humidity;BME280_pressure;Samples;Min_cycle;Max_cycle;Signal;HPM_P1;HPM_P2
2022/07/09 00:00:19;;;;;;;60.70;4.17;;;;;;;;;;5093970;28;20454;-66
2022/07/09 00:02:46;;;;;;;60.63;4.07;;;;;;;;;;5093679;28;20821;-63
2022/07/09 00:05:15;;;;;;;60.67;4.47;;;;;;;;;;5094467;28;20453;-66
2022/07/09 00:07:42;;;;;;;59.53;4.07;;;;;;;;;;5094071;28;20449;-66
2022/07/09 00:10:10;;;;;;;62.60;3.90;;;;;;;;;;5094441;28;20492;-65
2022/07/09 00:12:37;;;;;;;62.30;4.90;;;;;;;;;;5094902;28;20455;-66
2022/07/09 00:15:05;;;;;;;60.80;4.10;;;;;;;;;;5094701;28;20832;-64
2022/07/09 00:17:32;;;;;;;60.00;4.30;;;;;;;;;;5094263;28;20452;-63
2022/07/09 00:20:01;;;;;;;63.40;5.03;;;;;;;;;;5094483;28;20818;-65
2022/07/09 00:22:31;;;;;;;60.57;5.13;;;;;;;;;;5093243;28;20476;-65
2022/07/09 00:24:58;;;;;;;60.07;4.03;;;;;;;;;;5093548;28;20470;-62
2022/07/09 00:27:25;;;;;;;60.53;5.10;;;;;;;;;;5093005;28;20829;-65
2022/07/09 00:29:52;;;;;;;60.77;4.30;;;;;;;;;;5093974;28;20446;-63
2022/07/09 00:32:20;;;;;;;61.27;4.23;;;;;;;;;;5094236;28;20453;-65
2022/07/09 00:34:47;;;;;;;60.17;4.30;;;;;;;;;;5094089;28;20561;-63
2022/07/09 00:37:14;;;;;;;60.67;4.50;;;;;;;;;;5094209;28;20795;-64
2022/07/09 00:39:43;;;;;;;61.10;4.77;;;;;;;;;;5094180;28;20460;-64
2022/07/09 00:42:10;;;;;;;62.97;5.40;;;;;;;;;;5092895;28;20460;-66
2022/07/09 00:44:38;;;;;;;60.77;4.43;;;;;;;;;;5093513;28;20467;-64
2022/07/09 00:47:06;;;;;;;60.50;4.60;;;;;;;;;;5093553;28;20447;-63
2022/07/09 00:49:33;;;;;;;60.63;4.87;;;;;;;;;;5093487;28;20968;-64
2022/07/09 00:52:01;;;;;;;60.00;4.23;;;;;;;;;;5094030;28;20482;-64
2022/07/09 00:54:28;;;;;;;61.43;4.83;;;;;;;;;;5094044;28;20827;-63
2022/07/09 00:56:56;;;;;;;62.97;4.47;;;;;;;;;;5093764;28;20442;-64
2022/07/09 00:59:24;;;;;;;60.20;4.90;;;;;;;;;;5091518;28;20460;-63
2022/07/09 01:01:51;;;;;;;60.60;5.30;;;;;;;;;;5092642;28;20945;-65
2022/07/09 01:04:19;;;;;;;61.07;5.03;;;;;;;;;;5092507;28;20462;-65
2022/07/09 01:06:46;;;;;;;62.27;5.40;;;;;;;;;;5093557;28;20450;-65
2022/07/09 01:09:14;;;;;;;59.60;4.03;;;;;;;;;;5092963;28;20446;-65
2022/07/09 01:11:41;;;;;;;60.30;4.63;;;;;;;;;;5093661;28;20479;-65
2022/07/09 01:14:09;;;;;;;62.37;4.80;;;;;;;;;;5093348;28;20531;-64
2022/07/09 01:16:38;;;;;;;61.10;4.90;;;;;;;;;;5093275;28;20453;-64
2022/07/09 01:19:05;;;;;;;63.20;4.60;;;;;;;;;;5093323;28;20866;-64
2022/07/09 01:21:34;;;;;;;61.97;5.03;;;;;;;;;;5092792;28;20837;-65
2022/07/09 01:24:01;;;;;;;61.80;5.10;;;;;;;;;;5092440;28;20555;-64
2022/07/09 01:26:28;;;;;;;60.83;4.60;;;;;;;;;;5093217;28;20458;-65
2022/07/09 01:28:55;;;;;;;60.33;4.53;;;;;;;;;;5092716;28;20453;-65
2022/07/09 01:31:22;;;;;;;61.60;4.57;;;;;;;;;;5090581;28;20849;-64
2022/07/09 01:33:49;;;;;;;60.83;4.70;;;;;;;;;;5093104;28;20485;-64
2022/07/09 01:36:17;;;;;;;60.57;4.50;;;;;;;;;;5075679;28;20942;-65
2022/07/09 01:38:45;;;;;;;60.77;4.67;;;;;;;;;;5072059;28;20469;-64
2022/07/09 01:41:13;;;;;;;66.03;4.83;;;;;;;;;;5072613;28;20468;-65
2022/07/09 01:43:40;;;;;;;61.40;4.37;;;;;;;;;;5071382;28;20475;-64
2022/07/09 01:46:07;;;;;;;60.47;4.17;;;;;;;;;;5072475;28;20450;-65
2022/07/09 01:48:35;;;;;;;62.20;5.13;;;;;;;;;;5072526;28;20803;-64
2022/07/09 01:51:02;;;;;;;62.30;5.13;;;;;;;;;;5072217;28;20481;-64
2022/07/09 01:53:29;;;;;;;61.00;4.17;;;;;;;;;;5072278;28;20470;-64
2022/07/09 01:55:58;;;;;;;61.17;4.03;;;;;;;;;;5072713;28;20810;-64
2022/07/09 01:58:25;;;;;;;59.80;4.13;;;;;;;;;;5072290;28;20545;-64
2022/07/09 02:00:52;;;;;;;59.97;4.23;;;;;;;;;;5072305;28;20439;-65
2022/07/09 02:03:19;;;;;;;60.90;4.27;;;;;;;;;;5078407;28;20474;-65
2022/07/09 02:05:46;;;;;;;61.63;4.70;;;;;;;;;;5091922;28;20813;-65
2022/07/09 02:08:13;;;;;;;61.97;4.67;;;;;;;;;;5091818;28;20453;-65
2022/07/09 02:10:40;;;;;;;61.00;4.43;;;;;;;;;;5092372;28;20502;-65
2022/07/09 02:13:09;;;;;;;60.37;4.20;;;;;;;;;;5083426;28;20473;-64
2022/07/09 02:15:36;;;;;;;60.63;4.90;;;;;;;;;;5072170;28;20450;-64
2022/07/09 02:18:04;;;;;;;60.07;4.23;;;;;;;;;;5071752;28;20454;-64
2022/07/09 02:20:32;;;;;;;61.50;4.80;;;;;;;;;;5071623;28;20453;-65
2022/07/09 02:22:59;;;;;;;61.00;4.90;;;;;;;;;;5071497;28;20458;-64
2022/07/09 02:25:27;;;;;;;60.77;4.10;;;;;;;;;;5070826;28;20447;-64
2022/07/09 02:27:54;;;;;;;59.97;4.20;;;;;;;;;;5071452;28;20452;-64
2022/07/09 02:30:23;;;;;;;59.97;3.93;;;;;;;;;;5071809;28;20949;-64
2022/07/09 02:32:50;;;;;;;60.67;4.50;;;;;;;;;;5071240;28;20485;-65
2022/07/09 02:35:17;;;;;;;62.40;4.73;;;;;;;;;;5071808;28;20465;-64
2022/07/09 02:37:44;;;;;;;60.37;4.60;;;;;;;;;;5091700;28;20453;-64
2022/07/09 02:40:14;;;;;;;59.70;4.53;;;;;;;;;;5092273;28;20456;-64
2022/07/09 02:42:41;;;;;;;63.40;4.23;;;;;;;;;;5091449;28;20504;-64
2022/07/09 02:45:09;;;;;;;61.33;5.00;;;;;;;;;;5090663;28;20469;-65
2022/07/09 02:47:37;;;;;;;60.47;4.30;;;;;;;;;;5090603;28;20834;-65
2022/07/09 02:50:05;;;;;;;61.40;4.57;;;;;;;;;;5092056;28;20823;-64
2022/07/09 02:52:32;;;;;;;61.50;3.93;;;;;;;;;;5090832;28;20590;-65
2022/07/09 02:54:59;;;;;;;59.60;3.73;;;;;;;;;;5091734;28;20472;-64
2022/07/09 02:57:26;;;;;;;60.80;4.10;;;;;;;;;;5091596;28;20452;-64
2022/07/09 02:59:53;;;;;;;61.23;4.60;;;;;;;;;;5091566;28;20817;-64
2022/07/09 03:02:20;;;;;;;60.87;4.20;;;;;;;;;;5091284;28;20540;-65
2022/07/09 03:04:49;;;;;;;62.50;5.10;;;;;;;;;;5090545;28;20856;-64
2022/07/09 03:07:16;;;;;;;60.17;4.30;;;;;;;;;;5090094;28;20943;-64
2022/07/09 03:09:44;;;;;;;59.93;4.30;;;;;;;;;;5090712;28;20485;-65
2022/07/09 03:12:11;;;;;;;60.27;4.67;;;;;;;;;;5091059;28;20484;-64
2022/07/09 03:14:38;;;;;;;60.30;4.40;;;;;;;;;;5091230;28;20472;-64
2022/07/09 03:17:05;;;;;;;60.60;4.80;;;;;;;;;;5091502;28;20934;-64
2022/07/09 03:19:32;;;;;;;65.20;5.23;;;;;;;;;;5091363;28;20464;-64
2022/07/09 03:22:01;;;;;;;60.40;4.40;;;;;;;;;;5091414;28;20446;-64
2022/07/09 03:24:28;;;;;;;63.30;4.37;;;;;;;;;;5090194;28;20476;-64
2022/07/09 03:26:55;;;;;;;62.13;4.90;;;;;;;;;;5091516;28;20552;-64
2022/07/09 03:29:22;;;;;;;60.77;4.93;;;;;;;;;;5090610;28;20451;-64
2022/07/09 03:31:49;;;;;;;59.77;4.17;;;;;;;;;;5091103;28;20486;-65
2022/07/09 03:34:17;;;;;;;59.40;4.03;;;;;;;;;;5091156;28;20568;-64
2022/07/09 03:36:44;;;;;;;61.97;4.70;;;;;;;;;;5091453;28;20450;-64
2022/07/09 03:39:12;;;;;;;60.87;5.13;;;;;;;;;;5088673;28;21077;-64
2022/07/09 03:41:39;;;;;;;60.17;4.30;;;;;;;;;;5090971;28;20544;-64
2022/07/09 03:44:06;;;;;;;60.53;4.73;;;;;;;;;;5090116;28;20479;-64
2022/07/09 03:46:33;;;;;;;61.17;4.50;;;;;;;;;;5090424;28;21025;-65
2022/07/09 03:49:01;;;;;;;61.30;5.03;;;;;;;;;;5090797;28;20880;-64
2022/07/09 03:51:28;;;;;;;64.03;4.83;;;;;;;;;;5090689;28;20532;-65
2022/07/09 03:53:55;;;;;;;59.77;4.20;;;;;;;;;;5090976;28;20481;-64
2022/07/09 03:56:23;;;;;;;60.93;4.20;;;;;;;;;;5091035;28;20452;-64
2022/07/09 03:58:51;;;;;;;60.60;4.43;;;;;;;;;;5090800;28;20479;-65
2022/07/09 04:01:18;;;;;;;60.47;4.83;;;;;;;;;;5090846;28;20452;-64
2022/07/09 04:03:45;;;;;;;61.37;4.73;;;;;;;;;;5093389;28;20495;-64
2022/07/09 04:06:12;;;;;;;61.00;4.37;;;;;;;;;;5094185;28;20445;-65
2022/07/09 04:08:39;;;;;;;59.87;4.30;;;;;;;;;;5094163;28;20446;-64
2022/07/09 04:11:06;;;;;;;60.77;4.03;;;;;;;;;;5092585;28;20533;-64
2022/07/09 04:13:35;;;;;;;61.13;4.50;;;;;;;;;;5094422;28;20473;-64
2022/07/09 04:16:02;;;;;;;62.03;5.10;;;;;;;;;;5094924;28;20459;-65
2022/07/09 04:18:29;;;;;;;62.50;5.10;;;;;;;;;;5094561;28;20532;-64
2022/07/09 04:20:57;;;;;;;60.47;4.20;;;;;;;;;;5094412;28;20465;-65
2022/07/09 04:23:24;;;;;;;64.50;4.87;;;;;;;;;;5093987;28;20475;-64
2022/07/09 04:25:51;;;;;;;60.93;4.13;;;;;;;;;;5093212;28;20451;-65
2022/07/09 04:28:18;;;;;;;59.57;4.07;;;;;;;;;;5094235;28;20441;-65
2022/07/09 04:30:47;;;;;;;59.97;4.60;;;;;;;;;;5094225;28;20450;-65
2022/07/09 04:33:14;;;;;;;60.27;4.70;;;;;;;;;;5093847;28;20493;-65
2022/07/09 04:35:41;;;;;;;61.90;4.80;;;;;;;;;;5094179;28;20453;-65
2022/07/09 04:38:08;;;;;;;59.80;4.00;;;;;;;;;;5093859;28;20441;-64
2022/07/09 04:40:36;;;;;;;59.87;4.10;;;;;;;;;;5094114;28;20442;-65
2022/07/09 04:43:03;;;;;;;64.37;4.60;;;;;;;;;;5091947;28;20456;-65
2022/07/09 04:45:31;;;;;;;60.20;4.43;;;;;;;;;;5093179;28;20452;-64
2022/07/09 04:48:00;;;;;;;60.20;4.53;;;;;;;;;;5093308;28;20450;-64
2022/07/09 04:50:27;;;;;;;59.57;4.20;;;;;;;;;;5093573;28;20460;-65
2022/07/09 04:52:55;;;;;;;64.57;5.13;;;;;;;;;;5093602;28;20598;-64
2022/07/09 04:55:22;;;;;;;60.87;4.83;;;;;;;;;;5093978;28;20453;-65
2022/07/09 04:57:49;;;;;;;60.27;4.60;;;;;;;;;;5093555;28;20534;-64
2022/07/09 05:00:17;;;;;;;60.83;4.13;;;;;;;;;;5093715;28;20541;-64
2022/07/09 05:02:44;;;;;;;63.40;5.00;;;;;;;;;;5093617;28;20810;-65
2022/07/09 05:05:13;;;;;;;59.97;4.13;;;;;;;;;;5092770;28;20863;-64
2022/07/09 05:07:41;;;;;;;59.97;4.20;;;;;;;;;;5093030;28;20731;-65
2022/07/09 05:10:08;;;;;;;62.20;5.03;;;;;;;;;;5093514;28;20926;-64
2022/07/09 05:12:36;;;;;;;60.10;4.30;;;;;;;;;;5093217;28;20474;-65
2022/07/09 05:15:03;;;;;;;60.07;4.60;;;;;;;;;;5090121;28;20493;-64
2022/07/09 05:17:34;;;;;;;60.30;3.90;;;;;;;;;;5093100;28;20454;-65
2022/07/09 05:20:03;;;;;;;60.30;5.03;;;;;;;;;;5093947;28;20446;-65
2022/07/09 05:22:32;;;;;;;60.50;4.13;;;;;;;;;;5092960;28;20927;-65
2022/07/09 05:24:59;;;;;;;60.40;4.40;;;;;;;;;;5092465;28;20466;-65
2022/07/09 05:27:26;;;;;;;60.30;4.10;;;;;;;;;;5092418;28;20447;-65
2022/07/09 05:29:53;;;;;;;60.57;4.23;;;;;;;;;;5092991;28;20448;-64
2022/07/09 05:32:21;;;;;;;63.43;4.00;;;;;;;;;;5092801;28;20684;-65
2022/07/09 05:34:48;;;;;;;59.80;4.53;;;;;;;;;;5092771;28;21028;-64
2022/07/09 05:37:15;;;;;;;60.50;4.57;;;;;;;;;;5092984;28;20446;-65
2022/07/09 05:39:43;;;;;;;60.57;4.50;;;;;;;;;;5093072;28;20472;-64
2022/07/09 05:42:11;;;;;;;59.90;4.20;;;;;;;;;;5092914;28;20447;-65
2022/07/09 05:44:38;;;;;;;60.83;4.60;;;;;;;;;;5092634;28;20841;-65
2022/07/09 05:47:05;;;;;;;61.37;4.73;;;;;;;;;;5090268;28;20457;-64
2022/07/09 05:49:33;;;;;;;60.00;4.17;;;;;;;;;;5092079;28;20446;-65
2022/07/09 05:52:00;;;;;;;60.23;4.13;;;;;;;;;;5092777;28;20482;-65
2022/07/09 05:54:27;;;;;;;59.77;4.33;;;;;;;;;;5092425;28;20472;-65
2022/07/09 05:56:55;;;;;;;60.20;4.63;;;;;;;;;;5092567;28;20443;-65
2022/07/09 05:59:22;;;;;;;62.30;4.60;;;;;;;;;;5092397;28;20513;-65
2022/07/09 06:01:49;;;;;;;60.50;4.23;;;;;;;;;;5092508;28;20977;-65
2022/07/09 06:04:16;;;;;;;60.83;4.10;;;;;;;;;;5092527;28;20462;-64
2022/07/09 06:06:44;;;;;;;59.60;3.70;;;;;;;;;;5091684;28;20452;-65
2022/07/09 06:09:11;;;;;;;63.93;4.37;;;;;;;;;;5091682;28;20452;-64
2022/07/09 06:11:38;;;;;;;62.20;4.20;;;;;;;;;;5092124;28;20459;-64
2022/07/09 06:14:06;;;;;;;59.80;4.47;;;;;;;;;;5092358;28;20480;-65
2022/07/09 06:16:33;;;;;;;60.67;4.23;;;;;;;;;;5092139;28;20932;-65
2022/07/09 06:19:01;;;;;;;60.17;4.10;;;;;;;;;;5090258;28;20446;-65
2022/07/09 06:21:28;;;;;;;59.40;4.00;;;;;;;;;;5092253;28;20942;-66
2022/07/09 06:23:55;;;;;;;59.30;3.70;;;;;;;;;;5091899;28;20467;-64
2022/07/09 06:26:22;;;;;;;59.97;3.90;;;;;;;;;;5091976;28;20939;-65
2022/07/09 06:28:49;;;;;;;60.00;3.53;;;;;;;;;;5090470;28;20457;-65
2022/07/09 06:31:17;;;;;;;59.57;3.80;;;;;;;;;;5091907;28;20452;-66
2022/07/09 06:33:45;;;;;;;61.40;3.77;;;;;;;;;;5091658;28;20500;-66
2022/07/09 06:36:12;;;;;;;59.30;3.60;;;;;;;;;;5092026;28;20795;-64
2022/07/09 06:41:20;;;;;;;60.00;3.83;;;;;;;;;;5091594;28;20947;-64
2022/07/09 06:43:47;;;;;;;60.90;3.40;;;;;;;;;;5091607;28;20455;-64
2022/07/09 06:46:15;;;;;;;61.40;4.10;;;;;;;;;;5091918;28;20449;-64
2022/07/09 06:48:43;;;;;;;59.47;3.77;;;;;;;;;;5091149;28;20533;-64
2022/07/09 06:51:10;;;;;;;59.70;4.00;;;;;;;;;;5089124;28;20946;-64
2022/07/09 06:53:37;;;;;;;60.47;4.03;;;;;;;;;;5091065;28;20489;-64
2022/07/09 06:56:05;;;;;;;59.80;3.53;;;;;;;;;;5091533;28;20451;-65
2022/07/09 06:58:32;;;;;;;60.67;4.00;;;;;;;;;;5091577;28;20453;-65
2022/07/09 07:00:59;;;;;;;68.33;3.93;;;;;;;;;;5091799;28;20810;-65
2022/07/09 07:03:26;;;;;;;63.13;3.77;;;;;;;;;;5091489;28;20464;-64
2022/07/09 07:05:55;;;;;;;59.80;3.60;;;;;;;;;;5091302;28;20450;-65
2022/07/09 07:08:22;;;;;;;59.70;3.50;;;;;;;;;;5090792;28;20459;-64
2022/07/09 07:10:49;;;;;;;60.33;3.83;;;;;;;;;;5090828;28;20454;-65
2022/07/09 07:13:16;;;;;;;60.40;4.03;;;;;;;;;;5090705;28;21002;-65
2022/07/09 07:15:44;;;;;;;59.70;3.73;;;;;;;;;;5091351;28;20449;-65
2022/07/09 07:18:11;;;;;;;59.67;3.93;;;;;;;;;;5091373;28;20455;-65
2022/07/09 07:20:38;;;;;;;61.10;3.40;;;;;;;;;;5089186;28;20575;-64
2022/07/09 07:23:07;;;;;;;59.47;3.33;;;;;;;;;;5090942;28;20451;-65
2022/07/09 07:25:34;;;;;;;58.50;3.13;;;;;;;;;;5091311;28;20446;-65
2022/07/09 07:28:02;;;;;;;63.83;3.60;;;;;;;;;;5090696;28;20446;-64
2022/07/09 07:30:32;;;;;;;60.07;3.93;;;;;;;;;;5090768;28;20455;-65
2022/07/09 07:32:59;;;;;;;58.97;3.30;;;;;;;;;;5090127;28;20478;-65
2022/07/09 07:35:26;;;;;;;59.87;3.37;;;;;;;;;;5091119;28;20449;-64
2022/07/09 07:37:54;;;;;;;59.60;3.87;;;;;;;;;;5092664;28;20541;-65
2022/07/09 07:40:22;;;;;;;58.90;3.47;;;;;;;;;;5095598;28;20450;-64
2022/07/09 07:42:49;;;;;;;60.03;3.30;;;;;;;;;;5095105;28;20449;-65
2022/07/09 07:45:16;;;;;;;59.90;3.80;;;;;;;;;;5095166;28;20446;-65
2022/07/09 07:47:43;;;;;;;59.80;3.77;;;;;;;;;;5094419;28;20442;-64
2022/07/09 07:50:11;;;;;;;59.27;3.23;;;;;;;;;;5095150;28;20451;-65
2022/07/09 07:52:38;;;;;;;59.03;3.57;;;;;;;;;;5094506;28;20839;-65
2022/07/09 07:55:05;;;;;;;61.87;3.17;;;;;;;;;;5094582;28;20492;-65
2022/07/09 07:57:34;;;;;;;59.57;3.10;;;;;;;;;;5095202;28;20446;-65
2022/07/09 08:00:01;;;;;;;59.77;3.47;;;;;;;;;;5095187;28;20457;-65
2022/07/09 08:02:28;;;;;;;61.40;3.90;;;;;;;;;;5095114;28;20442;-65
2022/07/09 08:04:55;;;;;;;59.33;3.40;;;;;;;;;;5095357;28;20481;-65
2022/07/09 08:07:22;;;;;;;64.43;3.37;;;;;;;;;;5094903;28;20439;-65
2022/07/09 08:09:49;;;;;;;59.37;3.93;;;;;;;;;;5095144;28;20470;-64
2022/07/09 08:12:16;;;;;;;60.43;4.20;;;;;;;;;;5095429;28;20446;-65
2022/07/09 08:14:45;;;;;;;59.00;3.20;;;;;;;;;;5094877;28;20839;-64
2022/07/09 08:17:12;;;;;;;60.33;3.40;;;;;;;;;;5094944;28;20825;-65
2022/07/09 08:19:40;;;;;;;59.47;4.03;;;;;;;;;;5095021;28;20533;-64
2022/07/09 08:22:07;;;;;;;59.30;3.63;;;;;;;;;;5094930;28;20450;-65
2022/07/09 08:24:34;;;;;;;60.57;3.73;;;;;;;;;;5094754;28;20462;-64
2022/07/09 08:27:01;;;;;;;59.70;3.33;;;;;;;;;;5095010;28;20812;-64
2022/07/09 08:29:28;;;;;;;61.60;3.43;;;;;;;;;;5094451;28;20442;-65
2022/07/09 08:31:56;;;;;;;59.50;3.17;;;;;;;;;;5094922;28;20443;-64
2022/07/09 08:34:24;;;;;;;58.47;3.33;;;;;;;;;;5094446;28;20493;-65
2022/07/09 08:36:51;;;;;;;58.53;3.50;;;;;;;;;;5094507;28;20450;-64
2022/07/09 08:39:18;;;;;;;58.70;3.53;;;;;;;;;;5094227;28;20451;-65
2022/07/09 08:41:45;;;;;;;64.40;2.97;;;;;;;;;;5094450;28;20442;-64
2022/07/09 08:44:13;;;;;;;58.77;3.10;;;;;;;;;;5094613;28;20580;-65
2022/07/09 08:46:40;;;;;;;59.10;3.00;;;;;;;;;;5094503;28;20446;-65
2022/07/09 08:49:09;;;;;;;58.80;2.90;;;;;;;;;;5092841;28;20457;-64
2022/07/09 08:51:36;;;;;;;59.77;4.33;;;;;;;;;;5094240;28;20442;-65
2022/07/09 08:54:03;;;;;;;58.57;2.73;;;;;;;;;;5094040;28;20864;-64
2022/07/09 08:56:31;;;;;;;58.87;2.97;;;;;;;;;;5094174;28;20450;-64
2022/07/09 08:58:58;;;;;;;60.60;2.80;;;;;;;;;;5094111;28;20536;-65
2022/07/09 09:01:27;;;;;;;58.50;2.70;;;;;;;;;;5094275;28;20447;-65
2022/07/09 09:03:55;;;;;;;58.80;3.10;;;;;;;;;;5093863;28;20467;-65
2022/07/09 09:06:24;;;;;;;59.63;2.77;;;;;;;;;;5093368;28;20450;-65
2022/07/09 09:08:54;;;;;;;58.67;3.20;;;;;;;;;;5093607;28;20943;-64
2022/07/09 09:11:23;;;;;;;59.27;2.90;;;;;;;;;;5094115;28;20542;-64
2022/07/09 09:13:51;;;;;;;59.20;3.27;;;;;;;;;;5093858;28;20482;-65
2022/07/09 09:16:19;;;;;;;59.00;3.20;;;;;;;;;;5093954;28;20553;-65
2022/07/09 09:18:47;;;;;;;59.70;2.93;;;;;;;;;;5093559;28;20545;-65
2022/07/09 09:21:15;;;;;;;58.70;3.20;;;;;;;;;;5093586;28;20970;-64
2022/07/09 09:23:44;;;;;;;59.13;2.70;;;;;;;;;;5093382;28;20525;-65
2022/07/09 09:26:13;;;;;;;59.40;3.27;;;;;;;;;;5093647;28;20894;-65
2022/07/09 09:28:50;;;;;;;62.40;2.80;;;;;;;;;;5093608;28;20546;-64
2022/07/09 09:31:21;;;;;;;58.37;2.80;;;;;;;;;;5093664;28;20549;-64
2022/07/09 09:33:48;;;;;;;59.90;2.70;;;;;;;;;;5093101;28;21023;-64
2022/07/09 09:36:27;;;;;;;58.40;2.80;;;;;;;;;;5093352;28;20466;-64
2022/07/09 09:38:56;;;;;;;59.10;2.63;;;;;;;;;;5093232;28;20541;-64
2022/07/09 09:41:23;;;;;;;61.90;2.90;;;;;;;;;;5093461;28;20449;-66
2022/07/09 09:43:52;;;;;;;59.20;2.70;;;;;;;;;;5093251;28;20466;-65
2022/07/09 09:46:20;;;;;;;58.60;2.80;;;;;;;;;;5093255;28;20445;-64
2022/07/09 09:48:48;;;;;;;58.40;2.90;;;;;;;;;;5093120;28;20446;-65
2022/07/09 09:51:16;;;;;;;59.07;2.50;;;;;;;;;;5093410;28;20902;-65
2022/07/09 09:53:44;;;;;;;61.77;3.20;;;;;;;;;;5093043;28;20575;-65
2022/07/09 09:56:12;;;;;;;58.27;2.80;;;;;;;;;;5093030;28;20945;-64
2022/07/09 09:58:40;;;;;;;59.00;2.87;;;;;;;;;;5092737;28;20456;-65
2022/07/09 10:01:08;;;;;;;58.83;2.57;;;;;;;;;;5092600;28;20475;-64
2022/07/09 10:03:36;;;;;;;59.47;2.90;;;;;;;;;;5092883;28;20472;-65
2022/07/09 10:06:03;;;;;;;60.20;2.70;;;;;;;;;;5092856;28;20452;-64
2022/07/09 10:08:30;;;;;;;58.80;3.37;;;;;;;;;;5092629;28;20446;-64
2022/07/09 10:10:58;;;;;;;57.93;2.17;;;;;;;;;;5092908;28;20857;-65
2022/07/09 10:13:26;;;;;;;57.80;2.53;;;;;;;;;;5092479;28;20485;-65
2022/07/09 10:15:56;;;;;;;60.53;2.47;;;;;;;;;;5092703;28;20481;-65
2022/07/09 10:18:23;;;;;;;58.00;2.30;;;;;;;;;;5092372;28;20939;-64
2022/07/09 10:20:56;;;;;;;57.87;2.30;;;;;;;;;;5092699;28;20445;-65
2022/07/09 10:23:23;;;;;;;57.97;2.50;;;;;;;;;;5092524;28;20462;-66
2022/07/09 10:25:52;;;;;;;59.53;2.60;;;;;;;;;;5092396;28;20442;-65
2022/07/09 10:28:20;;;;;;;58.20;2.40;;;;;;;;;;5092498;28;20453;-65
2022/07/09 10:30:49;;;;;;;60.83;2.77;;;;;;;;;;5092577;28;20447;-65
2022/07/09 10:33:22;;;;;;;57.80;2.03;;;;;;;;;;5092133;28;20962;-65
2022/07/09 10:35:50;;;;;;;58.50;2.20;;;;;;;;;;5092403;28;20452;-62
2022/07/09 10:38:18;;;;;;;58.20;2.40;;;;;;;;;;5092048;28;20826;-65
2022/07/09 10:40:47;;;;;;;57.90;2.40;;;;;;;;;;5092268;28;20470;-65
2022/07/09 10:43:14;;;;;;;57.60;2.47;;;;;;;;;;5092310;28;20462;-65
2022/07/09 10:45:42;;;;;;;58.40;2.30;;;;;;;;;;5092179;28;20813;-63
2022/07/09 10:48:11;;;;;;;58.83;2.40;;;;;;;;;;5091927;28;20457;-65
2022/07/09 10:50:39;;;;;;;57.77;2.30;;;;;;;;;;5092171;28;20553;-65
2022/07/09 10:53:06;;;;;;;57.97;2.20;;;;;;;;;;5091730;28;20931;-63
2022/07/09 10:55:34;;;;;;;57.40;2.00;;;;;;;;;;5092220;28;20815;-64
2022/07/09 10:58:02;;;;;;;59.00;2.20;;;;;;;;;;5091705;28;20446;-64
2022/07/09 11:00:30;;;;;;;58.07;2.20;;;;;;;;;;5092056;28;20458;-64
2022/07/09 11:02:58;;;;;;;58.17;2.50;;;;;;;;;;5091950;28;20445;-64
2022/07/09 11:05:27;;;;;;;58.63;2.50;;;;;;;;;;5091886;28;20481;-64
2022/07/09 11:07:58;;;;;;;58.40;2.60;;;;;;;;;;5091494;28;20484;-64
2022/07/09 11:10:27;;;;;;;56.87;2.37;;;;;;;;;;5091924;28;20994;-64
2022/07/09 11:12:54;;;;;;;58.33;2.70;;;;;;;;;;5091057;28;20446;-64
2022/07/09 11:15:23;;;;;;;57.73;2.40;;;;;;;;;;5091724;28;20504;-64
2022/07/09 11:17:56;;;;;;;57.57;2.40;;;;;;;;;;5091510;28;20481;-63
2022/07/09 11:20:24;;;;;;;59.70;2.33;;;;;;;;;;5091788;28;20447;-64
2022/07/09 11:22:56;;;;;;;58.17;2.30;;;;;;;;;;5091517;28;20446;-64
2022/07/09 11:25:23;;;;;;;57.37;2.23;;;;;;;;;;5091587;28;21085;-64
2022/07/09 11:27:50;;;;;;;57.10;2.07;;;;;;;;;;5091518;28;20947;-64
2022/07/09 11:30:17;;;;;;;56.90;2.37;;;;;;;;;;5091596;28;20537;-64
2022/07/09 11:32:45;;;;;;;58.17;2.10;;;;;;;;;;5091492;28;20525;-64
2022/07/09 11:35:12;;;;;;;57.40;2.20;;;;;;;;;;5091481;28;20474;-65
2022/07/09 11:37:39;;;;;;;57.80;2.20;;;;;;;;;;5091332;28;20453;-64
2022/07/09 11:40:09;;;;;;;58.37;2.40;;;;;;;;;;5091732;28;20451;-64
2022/07/09 11:42:43;;;;;;;58.37;2.37;;;;;;;;;;5091619;28;20446;-64
2022/07/09 11:45:11;;;;;;;57.70;2.30;;;;;;;;;;5091352;28;20484;-64
2022/07/09 11:47:39;;;;;;;57.73;2.20;;;;;;;;;;5091234;28;20947;-64
2022/07/09 11:50:07;;;;;;;58.80;2.30;;;;;;;;;;5091662;28;20454;-64
2022/07/09 11:52:34;;;;;;;58.97;2.70;;;;;;;;;;5091583;28;20457;-64
2022/07/09 11:55:02;;;;;;;58.10;2.30;;;;;;;;;;5091588;28;20547;-64
2022/07/09 11:57:31;;;;;;;57.83;2.40;;;;;;;;;;5091193;28;20676;-63
2022/07/09 11:59:59;;;;;;;58.90;2.70;;;;;;;;;;5091619;28;20447;-63
2022/07/09 12:02:27;;;;;;;58.27;2.67;;;;;;;;;;5091451;28;20537;-64
2022/07/09 12:04:54;;;;;;;58.10;2.40;;;;;;;;;;5091338;28;20585;-63
2022/07/09 12:07:21;;;;;;;57.67;2.30;;;;;;;;;;5091167;28;20468;-66
2022/07/09 12:09:58;;;;;;;59.50;2.43;;;;;;;;;;5091323;28;20457;-63
2022/07/09 12:12:25;;;;;;;58.00;2.23;;;;;;;;;;5091218;28;20445;-66
2022/07/09 12:14:55;;;;;;;57.80;2.27;;;;;;;;;;5091163;28;21006;-65
2022/07/09 12:17:24;;;;;;;58.30;2.57;;;;;;;;;;5090949;28;20450;-64
2022/07/09 12:19:51;;;;;;;60.13;2.60;;;;;;;;;;5091107;28;20972;-65
2022/07/09 12:22:18;;;;;;;56.93;2.00;;;;;;;;;;5091184;28;20446;-65
2022/07/09 12:24:45;;;;;;;57.50;2.13;;;;;;;;;;5093791;28;20488;-65
2022/07/09 12:27:12;;;;;;;57.27;1.90;;;;;;;;;;5094487;28;20486;-65
2022/07/09 12:29:39;;;;;;;57.90;2.20;;;;;;;;;;5094923;28;20448;-65
2022/07/09 12:32:08;;;;;;;57.40;2.07;;;;;;;;;;5094734;28;20452;-65
2022/07/09 12:34:35;;;;;;;57.17;2.07;;;;;;;;;;5094582;28;20480;-64
2022/07/09 12:37:04;;;;;;;56.87;2.00;;;;;;;;;;5094560;28;20484;-65
2022/07/09 12:39:31;;;;;;;56.97;1.97;;;;;;;;;;5094220;28;20443;-65
2022/07/09 12:41:59;;;;;;;56.90;2.00;;;;;;;;;;5094763;28;20529;-65
2022/07/09 12:44:26;;;;;;;57.67;2.10;;;;;;;;;;5094266;28;20482;-64
2022/07/09 12:46:54;;;;;;;56.93;2.07;;;;;;;;;;5094426;28;20473;-65
2022/07/09 12:49:22;;;;;;;57.27;2.23;;;;;;;;;;5094201;28;20453;-64
2022/07/09 12:51:49;;;;;;;56.73;2.03;;;;;;;;;;5094293;28;20541;-66
2022/07/09 12:54:16;;;;;;;56.60;2.10;;;;;;;;;;5094012;28;20545;-65
2022/07/09 12:56:43;;;;;;;58.40;2.33;;;;;;;;;;5094413;28;20457;-66
2022/07/09 12:59:11;;;;;;;57.10;2.00;;;;;;;;;;5093995;28;20435;-65
2022/07/09 13:01:38;;;;;;;58.70;2.20;;;;;;;;;;5094063;28;20949;-65
2022/07/09 13:04:05;;;;;;;57.10;2.10;;;;;;;;;;5093918;28;20481;-65
2022/07/09 13:06:33;;;;;;;57.67;2.27;;;;;;;;;;5093940;28;20446;-64
2022/07/09 13:09:01;;;;;;;56.77;1.80;;;;;;;;;;5093940;28;20454;-65
2022/07/09 13:11:28;;;;;;;57.30;2.10;;;;;;;;;;5093845;28;20807;-64
2022/07/09 13:13:56;;;;;;;57.97;2.10;;;;;;;;;;5093699;28;20471;-64
2022/07/09 13:16:23;;;;;;;56.87;1.80;;;;;;;;;;5093936;28;20438;-65
2022/07/09 13:18:51;;;;;;;57.57;2.00;;;;;;;;;;5093414;28;20939;-65
2022/07/09 13:21:18;;;;;;;57.20;2.07;;;;;;;;;;5093750;28;20924;-64
2022/07/09 13:23:47;;;;;;;59.13;2.10;;;;;;;;;;5093728;28;20466;-65
2022/07/09 13:26:14;;;;;;;58.97;2.00;;;;;;;;;;5093590;28;20501;-64
2022/07/09 13:28:41;;;;;;;57.67;2.00;;;;;;;;;;5093384;28;20541;-64
2022/07/09 13:31:09;;;;;;;57.47;2.00;;;;;;;;;;5093537;28;20926;-65
2022/07/09 13:33:36;;;;;;;58.77;2.20;;;;;;;;;;5093257;28;20485;-64
2022/07/09 13:36:04;;;;;;;58.00;2.27;;;;;;;;;;5092714;28;20438;-64
2022/07/09 13:38:32;;;;;;;58.07;2.60;;;;;;;;;;5093084;28;20943;-64
2022/07/09 13:41:01;;;;;;;57.70;2.10;;;;;;;;;;5093512;28;20453;-64
2022/07/09 13:43:28;;;;;;;58.00;2.20;;;;;;;;;;5093228;28;20553;-64
2022/07/09 13:45:56;;;;;;;57.80;2.50;;;;;;;;;;5093060;28;20485;-64
2022/07/09 13:48:24;;;;;;;58.30;2.50;;;;;;;;;;5093148;28;20447;-64
2022/07/09 13:50:51;;;;;;;60.10;2.40;;;;;;;;;;5093371;28;20442;-64
2022/07/09 13:53:18;;;;;;;58.67;2.20;;;;;;;;;;5093432;28;20834;-64
2022/07/09 13:55:45;;;;;;;58.70;2.60;;;;;;;;;;5093117;28;20443;-64
2022/07/09 13:58:14;;;;;;;57.87;2.60;;;;;;;;;;5092803;28;20453;-65
2022/07/09 14:00:41;;;;;;;57.80;2.30;;;;;;;;;;5093191;28;20456;-63
2022/07/09 14:03:08;;;;;;;58.07;2.47;;;;;;;;;;5093011;28;20446;-63
2022/07/09 14:05:37;;;;;;;58.20;2.37;;;;;;;;;;5093179;28;20482;-63
2022/07/09 14:08:05;;;;;;;57.97;2.43;;;;;;;;;;5092614;28;20446;-63
2022/07/09 14:10:32;;;;;;;58.70;2.17;;;;;;;;;;5092760;28;20462;-63
2022/07/09 14:12:59;;;;;;;64.43;2.47;;;;;;;;;;5092565;28;20442;-63
2022/07/09 14:15:28;;;;;;;58.10;2.50;;;;;;;;;;5092733;28;20443;-65
2022/07/09 14:17:55;;;;;;;58.73;2.70;;;;;;;;;;5092403;28;20537;-64
2022/07/09 14:20:23;;;;;;;58.00;2.37;;;;;;;;;;5092662;28;20953;-63
2022/07/09 14:22:50;;;;;;;58.10;2.40;;;;;;;;;;5092470;28;20799;-63
2022/07/09 14:25:17;;;;;;;57.87;2.20;;;;;;;;;;5092567;28;20531;-63
2022/07/09 14:27:44;;;;;;;60.27;2.83;;;;;;;;;;5092080;28;20794;-64
2022/07/09 14:30:12;;;;;;;58.40;2.60;;;;;;;;;;5092609;28;20457;-64
2022/07/09 14:32:40;;;;;;;59.03;2.40;;;;;;;;;;5092376;28;20446;-65
2022/07/09 14:35:07;;;;;;;58.73;2.70;;;;;;;;;;5092236;28;20848;-65